sensor_id;sensor_type;location;lat;lon;timestamp;P1;durP1;ratioP1;P2;durP2;ratioP2
36315;SDS011;22343;50.820;2.666;2024-03-08T00:01:28;32.73;;;20.13;;
36315;SDS011;22343;50.820;2.666;2024-03-08T00:04:13;28.13;;;19.47;;
36315;SDS011;22343;50.820;2.666;2024-03-08T00:06:59;29.43;;;19.30;;
36315;SDS011;22343;50.820;2.666;2024-03-08T00:09:43;28.60;;;19.10;;
36315;SDS011;22343;50.820;2.666;2024-03-08T00:12:28;28.27;;;19.53;;
36315;SDS011;22343;50.820;2.666;2024-03-08T00:15:13;28.67;;;19.50;;
36315;SDS011;22343;50.820;2.666;2024-03-08T00:17:58;27.53;;;18.63;;
36315;SDS011;22343;50.820;2.666;2024-03-08T00:20:42;29.17;;;19.20;;
36315;SDS011;22343;50.820;2.666;2024-03-08T00:23:28;29.70;;;19.73;;
36315;SDS011;22343;50.820;2.666;2024-03-08T00:26:13;29.50;;;19.63;;
36315;SDS011;22343;50.820;2.666;2024-03-08T00:28:57;30.80;;;20.60;;
36315;SDS011;22343;50.820;2.666;2024-03-08T00:31:42;31.57;;;19.77;;
36315;SDS011;22343;50.820;2.666;2024-03-08T00:34:27;30.77;;;19.60;;
36315;SDS011;22343;50.820;2.666;2024-03-08T00:37:11;28.90;;;18.77;;
36315;SDS011;22343;50.820;2.666;2024-03-08T00:39:55;28.67;;;19.07;;
36315;SDS011;22343;50.820;2.666;2024-03-08T00:42:40;29.30;;;19.23;;
36315;SDS011;22343;50.820;2.666;2024-03-08T00:45:25;27.47;;;18.60;;
36315;SDS011;22343;50.820;2.666;2024-03-08T00:48:10;28.83;;;19.90;;
36315;SDS011;22343;50.820;2.666;2024-03-08T00:50:55;32.20;;;19.63;;
36315;SDS011;22343;50.820;2.666;2024-03-08T00:53:39;28.63;;;18.93;;
36315;SDS011;22343;50.820;2.666;2024-03-08T00:56:23;32.73;;;20.13;;
36315;SDS011;22343;50.820;2.666;2024-03-08T00:59:09;32.53;;;20.17;;
36315;SDS011;22343;50.820;2.666;2024-03-08T01:01:53;28.67;;;19.40;;
36315;SDS011;22343;50.820;2.666;2024-03-08T01:04:38;30.13;;;20.03;;
36315;SDS011;22343;50.820;2.666;2024-03-08T01:07:22;28.83;;;19.57;;
36315;SDS011;22343;50.820;2.666;2024-03-08T01:10:07;26.87;;;18.07;;
36315;SDS011;22343;50.820;2.666;2024-03-08T01:12:53;30.03;;;19.23;;
36315;SDS011;22343;50.820;2.666;2024-03-08T01:15:40;28.60;;;18.70;;
36315;SDS011;22343;50.820;2.666;2024-03-08T01:18:25;27.43;;;18.17;;
36315;SDS011;22343;50.820;2.666;2024-03-08T01:21:09;31.60;;;20.17;;
36315;SDS011;22343;50.820;2.666;2024-03-08T01:23:54;28.30;;;19.33;;
36315;SDS011;22343;50.820;2.666;2024-03-08T01:26:38;27.97;;;18.80;;
36315;SDS011;22343;50.820;2.666;2024-03-08T01:29:23;30.43;;;19.37;;
36315;SDS011;22343;50.820;2.666;2024-03-08T01:32:07;28.90;;;19.00;;
36315;SDS011;22343;50.820;2.666;2024-03-08T01:34:52;29.03;;;19.30;;
36315;SDS011;22343;50.820;2.666;2024-03-08T01:37:36;31.93;;;19.93;;
36315;SDS011;22343;50.820;2.666;2024-03-08T01:40:21;29.73;;;19.30;;
36315;SDS011;22343;50.820;2.666;2024-03-08T01:43:23;30.27;;;19.03;;
36315;SDS011;22343;50.820;2.666;2024-03-08T01:46:11;30.70;;;18.63;;
36315;SDS011;22343;50.820;2.666;2024-03-08T01:48:59;30.80;;;19.10;;
36315;SDS011;22343;50.820;2.666;2024-03-08T01:51:44;29.83;;;17.93;;
36315;SDS011;22343;50.820;2.666;2024-03-08T01:54:29;30.03;;;18.30;;
36315;SDS011;22343;50.820;2.666;2024-03-08T01:57:14;28.20;;;18.67;;
36315;SDS011;22343;50.820;2.666;2024-03-08T02:00:00;30.70;;;19.70;;
36315;SDS011;22343;50.820;2.666;2024-03-08T02:02:49;29.57;;;19.67;;
36315;SDS011;22343;50.820;2.666;2024-03-08T02:05:40;31.93;;;19.33;;
36315;SDS011;22343;50.820;2.666;2024-03-08T02:08:24;29.53;;;19.47;;
36315;SDS011;22343;50.820;2.666;2024-03-08T02:11:09;28.73;;;18.60;;
36315;SDS011;22343;50.820;2.666;2024-03-08T02:13:54;31.40;;;19.47;;
36315;SDS011;22343;50.820;2.666;2024-03-08T02:16:38;31.07;;;19.33;;
36315;SDS011;22343;50.820;2.666;2024-03-08T02:19:23;29.53;;;18.60;;
36315;SDS011;22343;50.820;2.666;2024-03-08T02:22:07;32.13;;;19.90;;
36315;SDS011;22343;50.820;2.666;2024-03-08T02:24:52;29.10;;;20.00;;
36315;SDS011;22343;50.820;2.666;2024-03-08T02:27:37;32.40;;;19.87;;
36315;SDS011;22343;50.820;2.666;2024-03-08T02:30:21;32.23;;;20.03;;
36315;SDS011;22343;50.820;2.666;2024-03-08T02:33:06;28.60;;;18.80;;
36315;SDS011;22343;50.820;2.666;2024-03-08T02:35:51;33.07;;;19.43;;
36315;SDS011;22343;50.820;2.666;2024-03-08T02:38:36;28.20;;;18.77;;
36315;SDS011;22343;50.820;2.666;2024-03-08T02:41:20;33.77;;;19.63;;
36315;SDS011;22343;50.820;2.666;2024-03-08T02:44:05;31.47;;;19.67;;
36315;SDS011;22343;50.820;2.666;2024-03-08T02:46:51;30.87;;;19.13;;
36315;SDS011;22343;50.820;2.666;2024-03-08T02:49:39;31.40;;;18.67;;
36315;SDS011;22343;50.820;2.666;2024-03-08T02:52:23;32.43;;;19.27;;
36315;SDS011;22343;50.820;2.666;2024-03-08T02:55:08;28.80;;;18.87;;
36315;SDS011;22343;50.820;2.666;2024-03-08T02:57:54;29.47;;;17.87;;
36315;SDS011;22343;50.820;2.666;2024-03-08T03:00:39;28.63;;;18.13;;
36315;SDS011;22343;50.820;2.666;2024-03-08T03:03:25;29.60;;;18.23;;
36315;SDS011;22343;50.820;2.666;2024-03-08T03:06:11;27.43;;;17.70;;
36315;SDS011;22343;50.820;2.666;2024-03-08T03:08:55;28.90;;;18.87;;
36315;SDS011;22343;50.820;2.666;2024-03-08T03:11:43;27.37;;;17.67;;
36315;SDS011;22343;50.820;2.666;2024-03-08T03:14:28;29.57;;;18.77;;
36315;SDS011;22343;50.820;2.666;2024-03-08T03:17:13;29.77;;;16.90;;
36315;SDS011;22343;50.820;2.666;2024-03-08T03:19:57;30.60;;;19.27;;
36315;SDS011;22343;50.820;2.666;2024-03-08T03:22:42;29.57;;;17.73;;
36315;SDS011;22343;50.820;2.666;2024-03-08T03:25:30;29.37;;;18.63;;
36315;SDS011;22343;50.820;2.666;2024-03-08T03:28:19;31.83;;;18.07;;
36315;SDS011;22343;50.820;2.666;2024-03-08T03:31:08;29.83;;;18.03;;
36315;SDS011;22343;50.820;2.666;2024-03-08T03:33:58;29.90;;;17.90;;
36315;SDS011;22343;50.820;2.666;2024-03-08T03:36:45;29.80;;;18.17;;
36315;SDS011;22343;50.820;2.666;2024-03-08T03:39:31;28.90;;;18.13;;
36315;SDS011;22343;50.820;2.666;2024-03-08T03:42:18;28.83;;;17.87;;
36315;SDS011;22343;50.820;2.666;2024-03-08T03:45:05;31.63;;;17.17;;
36315;SDS011;22343;50.820;2.666;2024-03-08T03:47:50;27.63;;;16.47;;
36315;SDS011;22343;50.820;2.666;2024-03-08T03:50:36;32.47;;;19.23;;
36315;SDS011;22343;50.820;2.666;2024-03-08T03:53:20;29.50;;;18.23;;
36315;SDS011;22343;50.820;2.666;2024-03-08T03:56:05;32.17;;;18.77;;
36315;SDS011;22343;50.820;2.666;2024-03-08T03:58:51;33.87;;;19.03;;
36315;SDS011;22343;50.820;2.666;2024-03-08T04:01:35;33.60;;;19.87;;
36315;SDS011;22343;50.820;2.666;2024-03-08T04:04:20;33.50;;;18.77;;
36315;SDS011;22343;50.820;2.666;2024-03-08T04:07:05;31.70;;;20.03;;
36315;SDS011;22343;50.820;2.666;2024-03-08T04:09:49;31.33;;;19.93;;
36315;SDS011;22343;50.820;2.666;2024-03-08T04:12:34;30.40;;;18.73;;
36315;SDS011;22343;50.820;2.666;2024-03-08T04:15:18;33.70;;;19.33;;
36315;SDS011;22343;50.820;2.666;2024-03-08T04:18:03;34.80;;;17.17;;
36315;SDS011;22343;50.820;2.666;2024-03-08T04:20:48;30.57;;;18.90;;
36315;SDS011;22343;50.820;2.666;2024-03-08T04:23:35;34.70;;;19.10;;
36315;SDS011;22343;50.820;2.666;2024-03-08T04:26:20;31.23;;;19.20;;
36315;SDS011;22343;50.820;2.666;2024-03-08T04:29:04;31.67;;;18.20;;
36315;SDS011;22343;50.820;2.666;2024-03-08T04:31:49;33.00;;;18.97;;
36315;SDS011;22343;50.820;2.666;2024-03-08T04:34:33;30.73;;;19.97;;
36315;SDS011;22343;50.820;2.666;2024-03-08T04:37:20;32.50;;;20.00;;
36315;SDS011;22343;50.820;2.666;2024-03-08T04:40:09;30.40;;;19.23;;
36315;SDS011;22343;50.820;2.666;2024-03-08T04:42:53;35.47;;;21.20;;
36315;SDS011;22343;50.820;2.666;2024-03-08T04:45:38;35.20;;;20.50;;
36315;SDS011;22343;50.820;2.666;2024-03-08T04:48:23;34.73;;;20.03;;
36315;SDS011;22343;50.820;2.666;2024-03-08T04:51:07;33.87;;;20.90;;
36315;SDS011;22343;50.820;2.666;2024-03-08T04:53:52;31.67;;;20.20;;
36315;SDS011;22343;50.820;2.666;2024-03-08T04:56:36;37.47;;;21.27;;
36315;SDS011;22343;50.820;2.666;2024-03-08T04:59:21;37.50;;;21.17;;
36315;SDS011;22343;50.820;2.666;2024-03-08T05:02:05;34.77;;;21.03;;
36315;SDS011;22343;50.820;2.666;2024-03-08T05:04:51;36.33;;;20.43;;
36315;SDS011;22343;50.820;2.666;2024-03-08T05:07:36;37.67;;;22.40;;
36315;SDS011;22343;50.820;2.666;2024-03-08T05:10:20;34.50;;;21.13;;
36315;SDS011;22343;50.820;2.666;2024-03-08T05:13:04;35.43;;;21.90;;
36315;SDS011;22343;50.820;2.666;2024-03-08T05:15:49;36.53;;;21.03;;
36315;SDS011;22343;50.820;2.666;2024-03-08T05:18:36;38.57;;;20.73;;
36315;SDS011;22343;50.820;2.666;2024-03-08T05:21:21;34.57;;;21.50;;
36315;SDS011;22343;50.820;2.666;2024-03-08T05:24:06;32.30;;;19.87;;
36315;SDS011;22343;50.820;2.666;2024-03-08T05:26:50;36.30;;;19.90;;
36315;SDS011;22343;50.820;2.666;2024-03-08T05:29:34;39.37;;;22.93;;
36315;SDS011;22343;50.820;2.666;2024-03-08T05:32:19;34.10;;;21.40;;
36315;SDS011;22343;50.820;2.666;2024-03-08T05:35:03;35.63;;;22.90;;
36315;SDS011;22343;50.820;2.666;2024-03-08T05:37:51;34.90;;;21.73;;
36315;SDS011;22343;50.820;2.666;2024-03-08T05:40:35;42.53;;;23.67;;
36315;SDS011;22343;50.820;2.666;2024-03-08T05:43:20;37.47;;;22.00;;
36315;SDS011;22343;50.820;2.666;2024-03-08T05:46:04;37.30;;;21.27;;
36315;SDS011;22343;50.820;2.666;2024-03-08T05:48:48;38.40;;;21.93;;
36315;SDS011;22343;50.820;2.666;2024-03-08T05:51:33;34.93;;;22.53;;
36315;SDS011;22343;50.820;2.666;2024-03-08T05:54:19;34.57;;;22.63;;
36315;SDS011;22343;50.820;2.666;2024-03-08T05:57:05;38.80;;;22.03;;
36315;SDS011;22343;50.820;2.666;2024-03-08T05:59:50;38.50;;;22.47;;
36315;SDS011;22343;50.820;2.666;2024-03-08T06:02:34;37.30;;;22.57;;
36315;SDS011;22343;50.820;2.666;2024-03-08T06:05:24;36.43;;;23.03;;
36315;SDS011;22343;50.820;2.666;2024-03-08T06:08:09;38.27;;;22.47;;
36315;SDS011;22343;50.820;2.666;2024-03-08T06:10:53;34.77;;;22.73;;
36315;SDS011;22343;50.820;2.666;2024-03-08T06:13:38;37.80;;;22.77;;
36315;SDS011;22343;50.820;2.666;2024-03-08T06:16:22;39.53;;;22.97;;
36315;SDS011;22343;50.820;2.666;2024-03-08T06:19:07;39.33;;;22.40;;
36315;SDS011;22343;50.820;2.666;2024-03-08T06:21:51;37.20;;;21.80;;
36315;SDS011;22343;50.820;2.666;2024-03-08T06:24:36;37.70;;;22.47;;
36315;SDS011;22343;50.820;2.666;2024-03-08T06:27:22;39.13;;;24.50;;
36315;SDS011;22343;50.820;2.666;2024-03-08T06:30:06;38.33;;;22.77;;
36315;SDS011;22343;50.820;2.666;2024-03-08T06:32:53;38.10;;;23.40;;
36315;SDS011;22343;50.820;2.666;2024-03-08T06:35:38;37.97;;;22.97;;
36315;SDS011;22343;50.820;2.666;2024-03-08T06:38:25;37.70;;;23.57;;
36315;SDS011;22343;50.820;2.666;2024-03-08T06:41:09;38.47;;;23.20;;
36315;SDS011;22343;50.820;2.666;2024-03-08T06:43:59;40.60;;;24.70;;
36315;SDS011;22343;50.820;2.666;2024-03-08T06:46:43;37.90;;;22.60;;
36315;SDS011;22343;50.820;2.666;2024-03-08T06:49:27;34.37;;;22.03;;
36315;SDS011;22343;50.820;2.666;2024-03-08T06:52:12;36.57;;;22.97;;
36315;SDS011;22343;50.820;2.666;2024-03-08T06:54:56;37.80;;;23.63;;
36315;SDS011;22343;50.820;2.666;2024-03-08T06:57:41;34.40;;;22.57;;
36315;SDS011;22343;50.820;2.666;2024-03-08T07:00:25;39.80;;;24.13;;
36315;SDS011;22343;50.820;2.666;2024-03-08T07:03:12;39.23;;;24.23;;
36315;SDS011;22343;50.820;2.666;2024-03-08T07:06:01;35.20;;;22.03;;
36315;SDS011;22343;50.820;2.666;2024-03-08T07:08:47;37.57;;;22.53;;
36315;SDS011;22343;50.820;2.666;2024-03-08T07:11:32;38.27;;;24.70;;
36315;SDS011;22343;50.820;2.666;2024-03-08T07:14:18;40.53;;;23.90;;
36315;SDS011;22343;50.820;2.666;2024-03-08T07:17:03;38.87;;;24.03;;
36315;SDS011;22343;50.820;2.666;2024-03-08T07:19:47;35.97;;;21.93;;
36315;SDS011;22343;50.820;2.666;2024-03-08T07:22:33;37.97;;;22.43;;
36315;SDS011;22343;50.820;2.666;2024-03-08T07:25:17;36.73;;;22.50;;
36315;SDS011;22343;50.820;2.666;2024-03-08T07:28:13;40.03;;;24.13;;
36315;SDS011;22343;50.820;2.666;2024-03-08T07:30:58;37.80;;;21.50;;
36315;SDS011;22343;50.820;2.666;2024-03-08T07:34:01;38.73;;;21.20;;
36315;SDS011;22343;50.820;2.666;2024-03-08T07:36:47;30.10;;;18.93;;
36315;SDS011;22343;50.820;2.666;2024-03-08T07:39:32;35.50;;;23.63;;
36315;SDS011;22343;50.820;2.666;2024-03-08T07:42:17;38.00;;;23.40;;
36315;SDS011;22343;50.820;2.666;2024-03-08T07:45:01;35.53;;;22.80;;
36315;SDS011;22343;50.820;2.666;2024-03-08T07:47:46;35.40;;;22.83;;
36315;SDS011;22343;50.820;2.666;2024-03-08T07:50:30;38.20;;;24.53;;
36315;SDS011;22343;50.820;2.666;2024-03-08T07:53:17;39.73;;;23.87;;
36315;SDS011;22343;50.820;2.666;2024-03-08T07:56:01;38.30;;;23.67;;
36315;SDS011;22343;50.820;2.666;2024-03-08T07:58:45;36.03;;;21.03;;
36315;SDS011;22343;50.820;2.666;2024-03-08T08:01:30;37.23;;;23.70;;
36315;SDS011;22343;50.820;2.666;2024-03-08T08:04:14;37.03;;;23.30;;
36315;SDS011;22343;50.820;2.666;2024-03-08T08:07:02;35.03;;;22.03;;
36315;SDS011;22343;50.820;2.666;2024-03-08T08:09:46;36.43;;;23.93;;
36315;SDS011;22343;50.820;2.666;2024-03-08T08:12:31;34.60;;;23.00;;
36315;SDS011;22343;50.820;2.666;2024-03-08T08:15:18;32.07;;;20.60;;
36315;SDS011;22343;50.820;2.666;2024-03-08T08:18:02;31.27;;;21.57;;
36315;SDS011;22343;50.820;2.666;2024-03-08T08:20:49;30.77;;;19.70;;
36315;SDS011;22343;50.820;2.666;2024-03-08T08:23:34;30.53;;;20.43;;
36315;SDS011;22343;50.820;2.666;2024-03-08T08:26:18;35.53;;;22.37;;
36315;SDS011;22343;50.820;2.666;2024-03-08T08:29:02;31.77;;;21.87;;
36315;SDS011;22343;50.820;2.666;2024-03-08T08:31:47;31.73;;;21.87;;
36315;SDS011;22343;50.820;2.666;2024-03-08T08:34:31;32.90;;;22.60;;
36315;SDS011;22343;50.820;2.666;2024-03-08T08:37:15;30.80;;;19.73;;
36315;SDS011;22343;50.820;2.666;2024-03-08T08:40:00;28.63;;;21.03;;
36315;SDS011;22343;50.820;2.666;2024-03-08T08:42:49;30.80;;;20.33;;
36315;SDS011;22343;50.820;2.666;2024-03-08T08:45:34;29.97;;;19.90;;
36315;SDS011;22343;50.820;2.666;2024-03-08T08:48:18;34.17;;;22.43;;
36315;SDS011;22343;50.820;2.666;2024-03-08T08:51:03;34.27;;;22.40;;
36315;SDS011;22343;50.820;2.666;2024-03-08T08:53:48;32.37;;;21.33;;
36315;SDS011;22343;50.820;2.666;2024-03-08T08:56:33;33.00;;;22.87;;
36315;SDS011;22343;50.820;2.666;2024-03-08T08:59:17;32.00;;;23.10;;
36315;SDS011;22343;50.820;2.666;2024-03-08T09:02:03;34.77;;;23.23;;
36315;SDS011;22343;50.820;2.666;2024-03-08T09:04:48;31.77;;;20.83;;
36315;SDS011;22343;50.820;2.666;2024-03-08T09:07:32;33.33;;;22.50;;
36315;SDS011;22343;50.820;2.666;2024-03-08T09:10:17;32.23;;;22.00;;
36315;SDS011;22343;50.820;2.666;2024-03-08T09:13:02;31.77;;;21.70;;
36315;SDS011;22343;50.820;2.666;2024-03-08T09:15:48;32.93;;;19.63;;
36315;SDS011;22343;50.820;2.666;2024-03-08T09:18:32;32.13;;;21.23;;
36315;SDS011;22343;50.820;2.666;2024-03-08T09:21:17;34.57;;;21.00;;
36315;SDS011;22343;50.820;2.666;2024-03-08T09:24:02;32.37;;;22.67;;
36315;SDS011;22343;50.820;2.666;2024-03-08T09:26:46;33.53;;;21.93;;
36315;SDS011;22343;50.820;2.666;2024-03-08T09:29:31;33.60;;;20.30;;
36315;SDS011;22343;50.820;2.666;2024-03-08T09:32:15;30.80;;;22.10;;
36315;SDS011;22343;50.820;2.666;2024-03-08T09:35:01;33.50;;;22.30;;
36315;SDS011;22343;50.820;2.666;2024-03-08T09:37:45;35.30;;;22.50;;
36315;SDS011;22343;50.820;2.666;2024-03-08T09:40:32;32.40;;;21.80;;
36315;SDS011;22343;50.820;2.666;2024-03-08T09:43:16;33.87;;;21.90;;
36315;SDS011;22343;50.820;2.666;2024-03-08T09:46:02;34.57;;;23.47;;
36315;SDS011;22343;50.820;2.666;2024-03-08T09:48:48;30.93;;;21.13;;
36315;SDS011;22343;50.820;2.666;2024-03-08T09:51:33;34.23;;;21.50;;
36315;SDS011;22343;50.820;2.666;2024-03-08T09:54:19;33.10;;;21.40;;
36315;SDS011;22343;50.820;2.666;2024-03-08T09:57:05;28.97;;;20.47;;
36315;SDS011;22343;50.820;2.666;2024-03-08T09:59:52;29.07;;;19.37;;
36315;SDS011;22343;50.820;2.666;2024-03-08T10:02:36;31.83;;;22.20;;
36315;SDS011;22343;50.820;2.666;2024-03-08T10:05:21;32.93;;;21.33;;
36315;SDS011;22343;50.820;2.666;2024-03-08T10:08:07;28.80;;;21.07;;
36315;SDS011;22343;50.820;2.666;2024-03-08T10:10:52;34.83;;;22.10;;
36315;SDS011;22343;50.820;2.666;2024-03-08T10:13:36;32.43;;;21.80;;
36315;SDS011;22343;50.820;2.666;2024-03-08T10:16:21;33.27;;;21.17;;
36315;SDS011;22343;50.820;2.666;2024-03-08T10:19:08;32.53;;;22.00;;
36315;SDS011;22343;50.820;2.666;2024-03-08T10:21:53;29.10;;;20.90;;
36315;SDS011;22343;50.820;2.666;2024-03-08T10:24:40;31.40;;;21.50;;
36315;SDS011;22343;50.820;2.666;2024-03-08T10:27:24;31.97;;;21.07;;
36315;SDS011;22343;50.820;2.666;2024-03-08T10:30:10;31.17;;;21.37;;
36315;SDS011;22343;50.820;2.666;2024-03-08T10:32:58;30.30;;;20.40;;
36315;SDS011;22343;50.820;2.666;2024-03-08T10:35:42;29.03;;;20.33;;
36315;SDS011;22343;50.820;2.666;2024-03-08T10:38:27;31.20;;;20.37;;
36315;SDS011;22343;50.820;2.666;2024-03-08T10:41:13;28.80;;;20.47;;
36315;SDS011;22343;50.820;2.666;2024-03-08T10:49:56;28.97;;;19.33;;
36315;SDS011;22343;50.820;2.666;2024-03-08T10:52:51;27.03;;;19.60;;
36315;SDS011;22343;50.820;2.666;2024-03-08T10:55:36;28.20;;;19.27;;
36315;SDS011;22343;50.820;2.666;2024-03-08T10:58:21;29.43;;;20.63;;
36315;SDS011;22343;50.820;2.666;2024-03-08T11:01:06;26.67;;;18.97;;
36315;SDS011;22343;50.820;2.666;2024-03-08T11:03:51;30.80;;;20.60;;
36315;SDS011;22343;50.820;2.666;2024-03-08T11:09:31;32.23;;;20.63;;
36315;SDS011;22343;50.820;2.666;2024-03-08T11:15:11;27.10;;;19.33;;
36315;SDS011;22343;50.820;2.666;2024-03-08T11:17:58;27.00;;;19.87;;
36315;SDS011;22343;50.820;2.666;2024-03-08T11:20:42;29.83;;;20.53;;
36315;SDS011;22343;50.820;2.666;2024-03-08T11:23:27;30.50;;;20.23;;
36315;SDS011;22343;50.820;2.666;2024-03-08T11:26:21;29.50;;;20.27;;
36315;SDS011;22343;50.820;2.666;2024-03-08T11:32:20;29.23;;;19.87;;
36315;SDS011;22343;50.820;2.666;2024-03-08T11:35:06;29.80;;;21.00;;
36315;SDS011;22343;50.820;2.666;2024-03-08T11:37:53;27.17;;;20.30;;
36315;SDS011;22343;50.820;2.666;2024-03-08T11:40:38;29.27;;;19.50;;
36315;SDS011;22343;50.820;2.666;2024-03-08T11:43:24;28.97;;;21.13;;
36315;SDS011;22343;50.820;2.666;2024-03-08T11:46:09;28.00;;;20.27;;
36315;SDS011;22343;50.820;2.666;2024-03-08T11:48:54;31.33;;;20.37;;
36315;SDS011;22343;50.820;2.666;2024-03-08T11:51:40;30.93;;;21.43;;
36315;SDS011;22343;50.820;2.666;2024-03-08T11:54:25;31.13;;;19.20;;
36315;SDS011;22343;50.820;2.666;2024-03-08T11:57:09;31.33;;;20.77;;
36315;SDS011;22343;50.820;2.666;2024-03-08T11:59:55;30.23;;;20.50;;
36315;SDS011;22343;50.820;2.666;2024-03-08T12:02:42;28.50;;;19.93;;
36315;SDS011;22343;50.820;2.666;2024-03-08T12:05:34;29.70;;;20.10;;
36315;SDS011;22343;50.820;2.666;2024-03-08T12:08:19;29.53;;;20.97;;
36315;SDS011;22343;50.820;2.666;2024-03-08T12:11:03;28.03;;;19.70;;
36315;SDS011;22343;50.820;2.666;2024-03-08T12:13:49;28.80;;;20.47;;
36315;SDS011;22343;50.820;2.666;2024-03-08T12:16:36;26.97;;;19.80;;
36315;SDS011;22343;50.820;2.666;2024-03-08T12:19:20;28.13;;;20.80;;
36315;SDS011;22343;50.820;2.666;2024-03-08T12:22:08;27.23;;;19.63;;
36315;SDS011;22343;50.820;2.666;2024-03-08T12:25:04;29.77;;;20.77;;
36315;SDS011;22343;50.820;2.666;2024-03-08T12:27:50;27.77;;;19.80;;
36315;SDS011;22343;50.820;2.666;2024-03-08T12:30:37;26.57;;;20.00;;
36315;SDS011;22343;50.820;2.666;2024-03-08T12:33:32;29.60;;;21.50;;
36315;SDS011;22343;50.820;2.666;2024-03-08T12:36:18;28.87;;;20.40;;
36315;SDS011;22343;50.820;2.666;2024-03-08T12:39:03;29.03;;;21.27;;
36315;SDS011;22343;50.820;2.666;2024-03-08T12:41:51;30.33;;;20.70;;
36315;SDS011;22343;50.820;2.666;2024-03-08T12:44:35;25.37;;;19.43;;
36315;SDS011;22343;50.820;2.666;2024-03-08T12:47:24;27.40;;;19.67;;
36315;SDS011;22343;50.820;2.666;2024-03-08T12:50:14;26.37;;;18.03;;
36315;SDS011;22343;50.820;2.666;2024-03-08T12:53:00;28.93;;;20.00;;
36315;SDS011;22343;50.820;2.666;2024-03-08T12:55:45;26.23;;;19.77;;
36315;SDS011;22343;50.820;2.666;2024-03-08T12:58:29;27.83;;;19.70;;
36315;SDS011;22343;50.820;2.666;2024-03-08T13:01:15;29.03;;;19.87;;
36315;SDS011;22343;50.820;2.666;2024-03-08T13:04:01;25.97;;;19.03;;
36315;SDS011;22343;50.820;2.666;2024-03-08T13:06:46;26.20;;;19.10;;
36315;SDS011;22343;50.820;2.666;2024-03-08T13:09:33;29.43;;;20.23;;
36315;SDS011;22343;50.820;2.666;2024-03-08T13:12:21;27.70;;;19.17;;
36315;SDS011;22343;50.820;2.666;2024-03-08T13:15:06;26.63;;;18.23;;
36315;SDS011;22343;50.820;2.666;2024-03-08T13:17:52;24.63;;;19.07;;
36315;SDS011;22343;50.820;2.666;2024-03-08T13:20:37;26.87;;;19.43;;
36315;SDS011;22343;50.820;2.666;2024-03-08T13:23:22;26.70;;;19.30;;
36315;SDS011;22343;50.820;2.666;2024-03-08T13:26:10;27.13;;;18.67;;
36315;SDS011;22343;50.820;2.666;2024-03-08T13:29:01;30.23;;;20.03;;
36315;SDS011;22343;50.820;2.666;2024-03-08T13:31:46;25.33;;;19.43;;
36315;SDS011;22343;50.820;2.666;2024-03-08T13:34:35;27.23;;;19.87;;
36315;SDS011;22343;50.820;2.666;2024-03-08T13:37:20;26.13;;;19.70;;
36315;SDS011;22343;50.820;2.666;2024-03-08T13:40:05;27.07;;;19.37;;
36315;SDS011;22343;50.820;2.666;2024-03-08T13:42:50;27.73;;;20.03;;
36315;SDS011;22343;50.820;2.666;2024-03-08T13:45:35;25.93;;;19.10;;
36315;SDS011;22343;50.820;2.666;2024-03-08T13:48:22;23.90;;;17.90;;
36315;SDS011;22343;50.820;2.666;2024-03-08T13:51:06;26.87;;;19.63;;
36315;SDS011;22343;50.820;2.666;2024-03-08T13:53:52;25.33;;;18.63;;
36315;SDS011;22343;50.820;2.666;2024-03-08T13:56:36;26.63;;;18.97;;
36315;SDS011;22343;50.820;2.666;2024-03-08T13:59:21;26.07;;;19.07;;
36315;SDS011;22343;50.820;2.666;2024-03-08T14:02:06;27.40;;;19.13;;
36315;SDS011;22343;50.820;2.666;2024-03-08T14:04:57;27.87;;;20.27;;
36315;SDS011;22343;50.820;2.666;2024-03-08T14:07:43;24.00;;;18.33;;
36315;SDS011;22343;50.820;2.666;2024-03-08T14:10:30;24.60;;;18.17;;
36315;SDS011;22343;50.820;2.666;2024-03-08T14:13:15;24.70;;;17.27;;
36315;SDS011;22343;50.820;2.666;2024-03-08T14:16:02;27.23;;;19.10;;
36315;SDS011;22343;50.820;2.666;2024-03-08T14:18:47;26.70;;;19.07;;
36315;SDS011;22343;50.820;2.666;2024-03-08T14:21:32;25.90;;;18.77;;
36315;SDS011;22343;50.820;2.666;2024-03-08T14:24:17;27.20;;;18.83;;
36315;SDS011;22343;50.820;2.666;2024-03-08T14:27:03;26.17;;;19.40;;
36315;SDS011;22343;50.820;2.666;2024-03-08T14:29:47;26.60;;;18.47;;
36315;SDS011;22343;50.820;2.666;2024-03-08T14:32:32;27.33;;;19.70;;
36315;SDS011;22343;50.820;2.666;2024-03-08T14:35:16;22.37;;;17.23;;
36315;SDS011;22343;50.820;2.666;2024-03-08T14:38:01;25.90;;;17.27;;
36315;SDS011;22343;50.820;2.666;2024-03-08T14:40:46;23.37;;;17.60;;
36315;SDS011;22343;50.820;2.666;2024-03-08T14:43:31;24.30;;;17.70;;
36315;SDS011;22343;50.820;2.666;2024-03-08T14:46:15;24.33;;;17.03;;
36315;SDS011;22343;50.820;2.666;2024-03-08T14:49:04;23.93;;;17.80;;
36315;SDS011;22343;50.820;2.666;2024-03-08T14:51:50;23.43;;;16.80;;
36315;SDS011;22343;50.820;2.666;2024-03-08T14:54:34;25.23;;;18.37;;
36315;SDS011;22343;50.820;2.666;2024-03-08T14:57:18;27.43;;;18.30;;
36315;SDS011;22343;50.820;2.666;2024-03-08T15:00:03;23.77;;;16.50;;
36315;SDS011;22343;50.820;2.666;2024-03-08T15:02:51;23.67;;;17.07;;
36315;SDS011;22343;50.820;2.666;2024-03-08T15:05:37;23.03;;;16.73;;
36315;SDS011;22343;50.820;2.666;2024-03-08T15:08:26;23.60;;;17.27;;
36315;SDS011;22343;50.820;2.666;2024-03-08T15:11:11;22.37;;;16.90;;
36315;SDS011;22343;50.820;2.666;2024-03-08T15:13:55;23.73;;;15.80;;
36315;SDS011;22343;50.820;2.666;2024-03-08T15:16:42;23.47;;;16.60;;
36315;SDS011;22343;50.820;2.666;2024-03-08T15:19:27;22.23;;;16.43;;
36315;SDS011;22343;50.820;2.666;2024-03-08T15:22:11;24.80;;;16.57;;
36315;SDS011;22343;50.820;2.666;2024-03-08T15:24:56;23.00;;;17.23;;
36315;SDS011;22343;50.820;2.666;2024-03-08T15:27:42;21.63;;;15.83;;
36315;SDS011;22343;50.820;2.666;2024-03-08T15:30:27;22.73;;;16.17;;
36315;SDS011;22343;50.820;2.666;2024-03-08T15:33:15;20.33;;;16.23;;
36315;SDS011;22343;50.820;2.666;2024-03-08T15:36:08;23.20;;;16.80;;
36315;SDS011;22343;50.820;2.666;2024-03-08T15:38:55;22.07;;;16.47;;
36315;SDS011;22343;50.820;2.666;2024-03-08T15:41:39;21.93;;;15.63;;
36315;SDS011;22343;50.820;2.666;2024-03-08T15:44:24;20.13;;;15.80;;
36315;SDS011;22343;50.820;2.666;2024-03-08T15:47:11;22.20;;;15.97;;
36315;SDS011;22343;50.820;2.666;2024-03-08T15:49:55;21.90;;;16.07;;
36315;SDS011;22343;50.820;2.666;2024-03-08T15:52:43;23.87;;;16.20;;
36315;SDS011;22343;50.820;2.666;2024-03-08T15:55:28;20.63;;;16.23;;
36315;SDS011;22343;50.820;2.666;2024-03-08T15:58:13;23.20;;;18.00;;
36315;SDS011;22343;50.820;2.666;2024-03-08T16:00:58;26.33;;;18.27;;
36315;SDS011;22343;50.820;2.666;2024-03-08T16:03:45;24.70;;;17.47;;
36315;SDS011;22343;50.820;2.666;2024-03-08T16:06:32;22.67;;;17.27;;
36315;SDS011;22343;50.820;2.666;2024-03-08T16:09:16;24.73;;;17.47;;
36315;SDS011;22343;50.820;2.666;2024-03-08T16:12:01;22.37;;;16.07;;
36315;SDS011;22343;50.820;2.666;2024-03-08T16:14:45;23.67;;;16.70;;
36315;SDS011;22343;50.820;2.666;2024-03-08T16:17:30;23.07;;;16.53;;
36315;SDS011;22343;50.820;2.666;2024-03-08T16:20:14;23.93;;;17.00;;
36315;SDS011;22343;50.820;2.666;2024-03-08T16:23:00;21.33;;;16.87;;